Time;durP1;ratioP1;P1;durP2;ratioP2;P2;SDS_P1;SDS_P2;PMS_P1;PMS_P2;Temp;Humidity;BMP_temperature;BMP_pressure;BME280_temperature;BME280_humidity;BME280_pressure;Samples;Min_cycle;Max_cycle;Signal;HPM_P1;HPM_P2
2022/04/09 00:00:57;;;;;;;5.55;1.48;;;;;;;20.19;47.27;99304.94;5081580;28;20086;-91
2022/04/09 00:03:22;;;;;;;6.15;1.77;;;;;;;20.17;47.16;99293.56;5083296;28;20040;-91
2022/04/09 00:05:48;;;;;;;5.07;1.75;;;;;;;20.16;47.54;99303.34;5084393;28;20469;-90
2022/04/09 00:08:14;;;;;;;5.63;1.38;;;;;;;20.16;47.44;99297.16;5084896;28;20039;-91
2022/04/09 00:10:40;;;;;;;3.83;1.30;;;;;;;20.15;47.30;99306.06;5087093;28;20078;-91
2022/04/09 00:13:05;;;;;;;6.85;1.40;;;;;;;20.16;47.03;99302.47;5087724;28;20028;-91
2022/04/09 00:15:31;;;;;;;4.35;1.42;;;;;;;20.10;47.37;99304.53;5086953;28;20028;-91
2022/04/09 00:17:57;;;;;;;5.93;1.60;;;;;;;20.12;47.36;99310.63;5084942;28;20034;-91
2022/04/09 00:20:23;;;;;;;5.32;1.65;;;;;;;20.11;47.24;99305.41;5085383;28;20065;-91
2022/04/09 00:22:49;;;;;;;4.95;1.50;;;;;;;20.08;47.28;99303.78;5087024;28;20024;-90
2022/04/09 00:25:23;;;;;;;5.10;1.80;;;;;;;20.08;47.42;99311.72;5087841;28;20024;-90
2022/04/09 00:27:52;;;;;;;5.22;1.35;;;;;;;20.07;47.39;99315.34;5086166;28;20480;-92
2022/04/09 00:30:18;;;;;;;6.85;1.73;;;;;;;20.08;47.17;99311.72;5087666;28;20033;-91
2022/04/09 00:32:44;;;;;;;6.97;1.80;;;;;;;20.06;47.56;99313.63;5086724;28;20043;-91
2022/04/09 00:35:10;;;;;;;5.30;1.48;;;;;;;20.06;47.61;99312.75;5087636;28;20020;-91
2022/04/09 00:37:47;;;;;;;5.40;1.40;;;;;;;20.05;47.54;99314.56;5085790;28;20039;-91
2022/04/09 00:40:15;;;;;;;5.55;1.33;;;;;;;20.04;47.47;99299.59;5086386;28;20028;-91
2022/04/09 00:42:42;;;;;;;7.05;1.83;;;;;;;20.03;47.57;99319.09;5087141;28;20103;-91
2022/04/09 00:45:09;;;;;;;5.95;1.45;;;;;;;20.00;47.16;99308.66;5089059;28;20043;-92
2022/04/09 00:47:36;;;;;;;6.32;1.50;;;;;;;20.01;47.19;99305.09;5086843;28;20029;-90
2022/04/09 00:50:03;;;;;;;4.30;1.40;;;;;;;20.03;47.17;99307.63;5089019;28;20035;-89
2022/04/09 00:52:32;;;;;;;4.35;1.27;;;;;;;20.01;47.32;99305.09;5085842;28;20033;-91
2022/04/09 00:55:02;;;;;;;6.97;1.48;;;;;;;20.02;47.44;99300.63;5086419;28;20028;-92
2022/04/09 00:57:29;;;;;;;5.53;1.55;;;;;;;20.00;47.18;99298.06;5085852;28;20033;-91
2022/04/09 00:59:56;;;;;;;4.45;1.42;;;;;;;20.00;47.20;99308.66;5083179;28;20025;-89
2022/04/09 01:02:21;;;;;;;4.50;1.40;;;;;;;19.96;47.29;99304.53;5083508;28;20028;-90
2022/04/09 01:04:49;;;;;;;4.93;1.50;;;;;;;19.98;47.44;99299.97;5086319;28;20031;-91
2022/04/09 01:07:15;;;;;;;5.38;1.45;;;;;;;19.96;47.35;99304.53;5084195;28;20031;-90
2022/04/09 01:09:44;;;;;;;4.97;1.48;;;;;;;19.96;47.28;99301.88;5083314;28;20049;-90
2022/04/09 01:12:10;;;;;;;5.55;1.40;;;;;;;19.95;47.40;99278.97;5083599;28;20468;-90
2022/04/09 01:14:36;;;;;;;5.70;2.05;;;;;;;19.95;47.43;99281.59;5083327;28;20100;-90
2022/04/09 01:17:02;;;;;;;6.30;1.50;;;;;;;19.95;47.37;99289.56;5082795;28;20039;-89
2022/04/09 01:19:28;;;;;;;5.95;1.63;;;;;;;19.94;47.44;99293.13;5082604;28;20105;-91
2022/04/09 01:22:00;;;;;;;5.18;1.70;;;;;;;19.93;47.58;99283.47;5086384;28;20056;-90
2022/04/09 01:24:26;;;;;;;6.68;1.58;;;;;;;19.90;47.47;99291.63;5083865;28;20428;-90
2022/04/09 01:26:52;;;;;;;5.97;1.77;;;;;;;19.91;47.52;99294.16;5081963;28;20024;-89
2022/04/09 01:29:20;;;;;;;6.03;1.48;;;;;;;19.91;47.56;99283.56;5083331;28;20029;-90
2022/04/09 01:31:46;;;;;;;5.60;1.50;;;;;;;19.91;47.63;99293.31;5083819;28;20429;-89
2022/04/09 01:34:19;;;;;;;4.00;1.33;;;;;;;19.88;47.21;99298.78;5084173;28;20032;-90
2022/04/09 01:36:44;;;;;;;5.00;1.52;;;;;;;19.91;47.11;99298.59;5082644;28;20065;-89
2022/04/09 01:39:10;;;;;;;3.92;1.20;;;;;;;19.86;47.38;99302.38;5083118;28;20048;-89
2022/04/09 01:41:36;;;;;;;6.70;1.25;;;;;;;19.88;47.34;99304.06;5066227;28;20363;-90
2022/04/09 01:44:03;;;;;;;3.83;1.42;;;;;;;19.88;47.30;99304.06;5083052;28;20028;-90
2022/04/09 01:46:29;;;;;;;5.10;1.45;;;;;;;19.86;47.46;99307.66;5082330;28;20039;-91
2022/04/09 01:48:55;;;;;;;5.00;1.40;;;;;;;19.86;47.47;99312.13;5084474;28;20091;-91
2022/04/09 01:51:24;;;;;;;6.13;1.50;;;;;;;19.84;47.64;99314.84;5084176;28;20036;-90
2022/04/09 01:53:49;;;;;;;4.80;1.17;;;;;;;19.83;47.20;99307.88;5083677;28;20028;-90
2022/04/09 01:56:15;;;;;;;6.10;1.58;;;;;;;19.82;47.71;99310.59;5084412;28;20105;-91
2022/04/09 01:58:45;;;;;;;5.60;1.45;;;;;;;19.82;47.25;99321.19;5084929;28;20110;-91
2022/04/09 02:01:10;;;;;;;5.85;1.63;;;;;;;19.81;47.47;99309.72;5087321;28;20044;-90
2022/04/09 02:03:37;;;;;;;5.57;1.55;;;;;;;19.80;47.45;99315.97;5089315;28;20028;-90
2022/04/09 02:06:03;;;;;;;4.63;1.40;;;;;;;19.80;47.29;99323.91;5083279;28;20478;-91
2022/04/09 02:08:29;;;;;;;5.68;1.90;;;;;;;19.78;47.33;99320.50;5083011;28;20039;-90
2022/04/09 02:10:55;;;;;;;6.07;1.95;;;;;;;19.77;47.33;99317.94;5082299;28;20032;-90
2022/04/09 02:13:21;;;;;;;5.30;1.40;;;;;;;19.78;47.30;99320.50;5082459;28;20096;-90
2022/04/09 02:15:47;;;;;;;4.45;1.15;;;;;;;19.77;47.27;99318.81;5083111;28;20066;-90
2022/04/09 02:18:13;;;;;;;4.47;1.52;;;;;;;19.78;47.47;99325.81;5081333;28;20052;-91
2022/04/09 02:20:38;;;;;;;5.90;1.42;;;;;;;19.77;47.17;99320.59;5084835;28;20043;-90
2022/04/09 02:23:04;;;;;;;4.60;1.20;;;;;;;19.75;47.32;99320.69;5083885;28;20036;-90
2022/04/09 02:25:30;;;;;;;5.68;1.58;;;;;;;19.75;47.41;99315.38;5085096;28;20021;-91
2022/04/09 02:27:56;;;;;;;5.78;1.48;;;;;;;19.76;47.41;99317.09;5084420;28;20024;-91
2022/04/09 02:30:22;;;;;;;6.68;1.67;;;;;;;19.75;47.38;99315.38;5086082;28;20048;-91
2022/04/09 02:32:49;;;;;;;4.35;1.65;;;;;;;19.73;47.14;99306.69;5084868;28;20066;-90
2022/04/09 02:35:17;;;;;;;5.65;1.45;;;;;;;19.71;47.45;99305.94;5084238;28;20055;-91
2022/04/09 02:37:42;;;;;;;4.15;1.20;;;;;;;19.72;47.49;99312.94;5081200;28;20092;-90
2022/04/09 02:40:09;;;;;;;5.80;1.60;;;;;;;19.69;47.35;99311.31;5081234;28;20059;-90
2022/04/09 02:42:39;;;;;;;3.95;1.15;;;;;;;19.69;47.33;99315.75;5081369;28;20039;-90
2022/04/09 02:45:06;;;;;;;5.25;1.45;;;;;;;19.68;47.37;99309.63;5081320;28;20017;-91
2022/04/09 02:47:32;;;;;;;4.10;1.27;;;;;;;19.69;47.30;99321.03;5081990;28;20035;-89
2022/04/09 02:50:03;;;;;;;4.55;1.25;;;;;;;19.68;47.38;99311.38;5082849;28;20016;-89
2022/04/09 02:52:39;;;;;;;4.65;1.30;;;;;;;19.67;47.40;99317.63;5085144;28;20112;-89
2022/04/09 02:55:06;;;;;;;;;;;;;;;19.67;47.62;99312.34;5085202;28;20024;-90
2022/04/09 02:57:32;;;;;;;5.18;1.27;;;;;;;19.68;47.63;99309.63;5085315;28;19916;-90
2022/04/09 02:59:58;;;;;;;4.47;1.45;;;;;;;19.67;47.72;99312.34;5084342;28;20119;-90
2022/04/09 03:02:24;;;;;;;5.38;1.40;;;;;;;19.65;47.65;99303.63;5085021;28;20071;-89
2022/04/09 03:04:52;;;;;;;5.45;1.40;;;;;;;19.63;47.74;99294.91;5085139;28;20408;-89
2022/04/09 03:07:17;;;;;;;4.78;1.35;;;;;;;19.64;47.52;99304.56;5084503;28;20370;-89
2022/04/09 03:09:43;;;;;;;3.40;1.05;;;;;;;19.63;47.54;99294.91;5084285;28;20028;-89
2022/04/09 03:12:09;;;;;;;4.80;1.20;;;;;;;19.62;47.67;99301.16;5083581;28;20024;-89
2022/04/09 03:14:35;;;;;;;6.55;1.50;;;;;;;19.61;47.68;99304.75;5084521;28;20051;-90
2022/04/09 03:17:00;;;;;;;4.65;1.45;;;;;;;19.63;47.75;99305.50;5083967;28;20028;-90
2022/04/09 03:19:26;;;;;;;5.30;1.30;;;;;;;19.63;47.52;99305.50;5082494;28;20044;-89
2022/04/09 03:21:52;;;;;;;6.38;1.80;;;;;;;19.63;47.73;99308.16;5082848;28;20084;-90
2022/04/09 03:24:18;;;;;;;3.75;1.30;;;;;;;19.62;47.75;99301.16;5084280;28;20036;-89
2022/04/09 03:26:44;;;;;;;6.22;1.60;;;;;;;19.61;47.85;99308.22;5083335;28;20063;-89
2022/04/09 03:29:09;;;;;;;4.03;1.33;;;;;;;19.61;47.67;99307.41;5083724;28;20044;-89
2022/04/09 03:31:35;;;;;;;4.40;1.38;;;;;;;19.58;47.50;99303.97;5085202;28;20088;-89
2022/04/09 03:34:03;;;;;;;4.45;1.38;;;;;;;19.58;47.64;99306.63;5085513;28;20074;-89
2022/04/09 03:36:29;;;;;;;3.95;1.00;;;;;;;19.57;47.46;99306.72;5085510;28;20035;-89
2022/04/09 03:38:55;;;;;;;5.75;1.38;;;;;;;19.56;47.56;99305.88;5084826;28;20107;-90
2022/04/09 03:41:21;;;;;;;5.47;1.42;;;;;;;19.55;47.65;99309.47;5086206;28;20048;-90
2022/04/09 03:43:48;;;;;;;5.80;1.27;;;;;;;19.56;47.73;99303.22;5085065;28;20052;-89
2022/04/09 03:46:14;;;;;;;4.70;1.10;;;;;;;19.54;47.69;99298.94;5085303;28;20020;-89
2022/04/09 03:48:42;;;;;;;4.05;1.38;;;;;;;19.53;47.83;99307.84;5085134;28;20039;-90
2022/04/09 03:51:07;;;;;;;4.35;1.23;;;;;;;19.53;47.74;99298.13;5084420;28;20099;-89
2022/04/09 03:53:34;;;;;;;5.30;1.60;;;;;;;19.55;47.68;99298.88;5084566;28;20473;-89
2022/04/09 03:56:00;;;;;;;3.78;1.00;;;;;;;19.54;47.86;99301.59;5085722;28;20366;-91
2022/04/09 03:58:26;;;;;;;5.18;1.77;;;;;;;19.52;47.87;99304.31;5088293;28;20020;-90
2022/04/09 04:00:53;;;;;;;3.70;1.27;;;;;;;19.53;47.69;99300.75;5087835;28;20028;-89
2022/04/09 04:03:19;;;;;;;4.15;1.27;;;;;;;19.53;47.96;99305.19;5087065;28;20053;-90
2022/04/09 04:05:47;;;;;;;4.53;1.20;;;;;;;19.50;47.95;99298.28;5087022;28;20020;-90
2022/04/09 04:08:13;;;;;;;5.05;1.60;;;;;;;19.49;47.55;99307.16;5087703;28;20016;-91
2022/04/09 04:10:40;;;;;;;4.28;1.40;;;;;;;19.49;47.85;99309.81;5087199;28;20020;-90
2022/04/09 04:13:06;;;;;;;5.00;1.50;;;;;;;19.49;47.82;99308.94;5087713;28;20025;-90
2022/04/09 04:15:32;;;;;;;4.68;1.30;;;;;;;19.49;47.88;99320.41;5086728;28;20024;-91
2022/04/09 04:17:58;;;;;;;3.40;1.10;;;;;;;19.48;47.90;99324.00;5084582;28;20028;-90
2022/04/09 04:20:24;;;;;;;5.63;1.50;;;;;;;19.48;48.01;99318.69;5084815;28;20039;-91
2022/04/09 04:22:53;;;;;;;3.72;1.55;;;;;;;19.46;47.83;99325.84;5086299;28;20035;-91
2022/04/09 04:25:20;;;;;;;4.80;1.10;;;;;;;19.46;47.60;99323.19;5086933;28;20024;-91
2022/04/09 04:27:47;;;;;;;4.57;1.48;;;;;;;19.44;47.67;99325.09;5086790;28;20477;-91
2022/04/09 04:30:14;;;;;;;4.55;1.52;;;;;;;19.44;47.91;99322.44;5086389;28;20088;-91
2022/04/09 04:32:41;;;;;;;4.95;1.83;;;;;;;19.42;47.81;99329.63;5087190;28;20028;-90
2022/04/09 04:35:07;;;;;;;4.50;1.30;;;;;;;19.41;47.84;99333.19;5084532;28;20020;-91
2022/04/09 04:37:37;;;;;;;5.50;1.65;;;;;;;19.40;47.81;99329.72;5082716;28;20027;-90
2022/04/09 04:40:04;;;;;;;4.45;1.30;;;;;;;19.39;47.44;99329.78;5086740;28;20039;-91
2022/04/09 04:42:30;;;;;;;4.20;1.45;;;;;;;19.41;47.67;99327.91;5087499;28;20062;-91
2022/04/09 04:44:56;;;;;;;4.57;1.23;;;;;;;19.39;47.81;99340.38;5085608;28;20021;-91
2022/04/09 04:47:22;;;;;;;5.07;1.33;;;;;;;19.38;47.63;99334.25;5085072;28;20020;-90
2022/04/09 04:49:47;;;;;;;4.15;1.58;;;;;;;19.37;47.62;99331.69;5084262;28;20025;-89
2022/04/09 04:52:13;;;;;;;4.35;1.30;;;;;;;19.38;48.01;99336.03;5083927;28;20032;-90
2022/04/09 04:54:38;;;;;;;5.60;1.52;;;;;;;19.34;47.88;99332.69;5085000;28;20024;-89
2022/04/09 04:57:04;;;;;;;4.60;1.15;;;;;;;19.35;47.84;99344.13;5087120;28;20031;-89
2022/04/09 04:59:29;;;;;;;5.65;1.55;;;;;;;19.34;47.78;99345.06;5086531;28;20029;-89
2022/04/09 05:01:55;;;;;;;5.18;1.40;;;;;;;19.34;47.68;99337.13;5086849;28;20025;-89
2022/04/09 05:04:21;;;;;;;6.75;1.63;;;;;;;19.33;47.87;99346.88;5085364;28;20025;-89
2022/04/09 05:06:48;;;;;;;8.15;2.00;;;;;;;19.32;47.73;99351.31;5085113;28;20049;-89
2022/04/09 05:09:14;;;;;;;5.43;1.40;;;;;;;19.31;48.02;99339.00;5086287;28;20028;-90
2022/04/09 05:11:40;;;;;;;2.63;1.00;;;;;;;19.32;47.78;99351.31;5085027;28;20047;-91
2022/04/09 05:14:06;;;;;;;5.65;1.42;;;;;;;19.31;47.76;99344.31;5085535;28;20028;-90
2022/04/09 05:16:31;;;;;;;3.85;1.45;;;;;;;19.32;47.71;99346.00;5086277;28;20365;-90
2022/04/09 05:18:57;;;;;;;6.60;1.65;;;;;;;19.30;47.75;99342.59;5084418;28;20514;-88
2022/04/09 05:21:23;;;;;;;6.15;1.52;;;;;;;19.30;47.84;99345.25;5084292;28;20458;-88
2022/04/09 05:23:48;;;;;;;6.55;1.60;;;;;;;19.28;47.82;99357.69;5083448;28;20393;-88
2022/04/09 05:26:14;;;;;;;4.82;1.58;;;;;;;19.27;47.92;99353.34;5085365;28;20040;-88
2022/04/09 05:28:40;;;;;;;5.50;1.48;;;;;;;19.27;47.79;99363.94;5081635;28;20138;-89
2022/04/09 05:31:06;;;;;;;6.53;1.70;;;;;;;19.27;47.57;99363.94;5083931;28;20024;-88
2022/04/09 05:33:32;;;;;;;4.18;1.38;;;;;;;19.27;47.85;99363.09;5084056;28;20017;-88
2022/04/09 05:35:57;;;;;;;4.32;1.50;;;;;;;19.26;47.82;99364.88;5083943;28;20047;-89
2022/04/09 05:38:23;;;;;;;4.50;1.70;;;;;;;19.25;47.80;99372.88;5084343;28;20024;-89
2022/04/09 05:40:49;;;;;;;5.20;1.75;;;;;;;19.23;47.74;99367.66;5084421;28;20020;-88
2022/04/09 05:43:14;;;;;;;4.95;1.38;;;;;;;19.25;47.71;99381.69;5085310;28;20493;-88
2022/04/09 05:45:40;;;;;;;6.35;2.00;;;;;;;19.26;47.76;99388.69;5087470;28;20039;-88
2022/04/09 05:48:06;;;;;;;4.07;1.42;;;;;;;19.23;47.60;99383.53;5086277;28;20021;-88
2022/04/09 05:50:32;;;;;;;4.80;1.50;;;;;;;19.23;47.94;99385.34;5082989;28;20028;-89
2022/04/09 05:52:57;;;;;;;4.45;1.38;;;;;;;19.22;47.61;99392.41;5081994;28;20024;-88
2022/04/09 05:55:23;;;;;;;4.95;1.20;;;;;;;19.20;47.81;99391.66;5083205;28;20035;-90
2022/04/09 05:57:49;;;;;;;4.45;1.20;;;;;;;19.19;47.48;99397.91;5085905;28;20016;-89
2022/04/09 06:00:16;;;;;;;6.35;1.85;;;;;;;19.18;47.63;99389.09;5084401;28;20446;-89
2022/04/09 06:02:42;;;;;;;4.15;1.40;;;;;;;19.17;47.74;99389.16;5085723;28;20082;-90
2022/04/09 06:05:08;;;;;;;4.88;1.55;;;;;;;19.17;47.62;99378.59;5086003;28;20035;-89
2022/04/09 06:07:35;;;;;;;4.25;1.30;;;;;;;19.17;47.82;99394.47;5083300;28;20028;-90
2022/04/09 06:10:03;;;;;;;5.13;1.48;;;;;;;19.18;47.82;99390.91;5089588;28;20028;-90
2022/04/09 06:12:29;;;;;;;3.75;1.10;;;;;;;19.17;47.78;99410.34;5088314;28;20497;-89
2022/04/09 06:14:55;;;;;;;4.97;1.25;;;;;;;19.15;47.81;99412.22;5084746;28;20017;-89
2022/04/09 06:17:21;;;;;;;3.20;1.10;;;;;;;19.14;47.78;99410.50;5082789;28;20126;-89
2022/04/09 06:19:47;;;;;;;4.63;1.40;;;;;;;19.13;47.90;99422.88;5083241;28;20044;-90
2022/04/09 06:22:13;;;;;;;3.42;1.23;;;;;;;19.13;47.76;99424.69;5083666;28;20030;-90
2022/04/09 06:24:38;;;;;;;4.53;1.15;;;;;;;19.12;47.81;99417.69;5085791;28;20017;-90
2022/04/09 06:27:07;;;;;;;5.03;1.23;;;;;;;19.11;47.87;99421.25;5087557;28;20021;-90
2022/04/09 06:29:32;;;;;;;4.35;1.33;;;;;;;19.12;47.59;99433.56;5086948;28;20021;-90
2022/04/09 06:31:58;;;;;;;6.15;1.35;;;;;;;19.10;47.93;99430.13;5087086;28;20025;-90
2022/04/09 06:34:24;;;;;;;4.88;1.35;;;;;;;19.11;47.70;99415.97;5087119;28;20092;-92
2022/04/09 06:36:49;;;;;;;5.43;1.45;;;;;;;19.09;47.77;99428.41;5080935;28;20025;-88
2022/04/09 06:39:16;;;;;;;5.05;1.35;;;;;;;19.07;47.69;99414.44;5080955;28;20025;-88
2022/04/09 06:41:43;;;;;;;4.05;1.40;;;;;;;19.07;47.82;99414.44;5083785;28;20021;-88
2022/04/09 06:44:11;;;;;;;6.50;1.48;;;;;;;19.05;47.56;99404.75;5082875;28;20024;-92
2022/04/09 06:46:36;;;;;;;3.47;1.08;;;;;;;19.07;47.88;99409.16;5083704;28;20024;-90
2022/04/09 06:49:02;;;;;;;5.00;1.70;;;;;;;19.07;47.57;99409.16;5082202;28;20086;-90
2022/04/09 06:51:28;;;;;;;5.25;1.48;;;;;;;19.04;47.64;99400.41;5081118;28;20039;-90
2022/04/09 06:53:53;;;;;;;4.28;1.20;;;;;;;19.04;47.83;99408.34;5079022;28;20446;-89
2022/04/09 06:56:19;;;;;;;4.45;1.33;;;;;;;19.05;47.82;99411.88;5080122;28;20020;-90
2022/04/09 06:58:44;;;;;;;4.30;1.40;;;;;;;19.08;47.76;99422.25;5081774;28;20024;-89
2022/04/09 07:01:10;;;;;;;4.72;1.70;;;;;;;19.09;48.07;99420.47;5080982;28;20088;-90
2022/04/09 07:03:36;;;;;;;4.30;1.30;;;;;;;19.08;47.81;99418.78;5082034;28;20024;-90
2022/04/09 07:06:01;;;;;;;4.18;1.23;;;;;;;19.07;47.63;99425.00;5081700;28;20024;-90
2022/04/09 07:08:27;;;;;;;4.53;1.38;;;;;;;19.07;47.84;99430.31;5081598;28;20104;-90
2022/04/09 07:10:52;;;;;;;4.30;1.23;;;;;;;19.05;48.04;99435.66;5082327;28;20494;-90
2022/04/09 07:13:18;;;;;;;4.68;1.13;;;;;;;19.07;48.23;99440.88;5082026;28;20032;-90
2022/04/09 07:15:44;;;;;;;4.57;1.40;;;;;;;19.05;48.19;99439.16;5082485;28;20028;-90
2022/04/09 07:18:09;;;;;;;3.83;1.20;;;;;;;19.09;48.44;99442.50;5084586;28;20052;-90
2022/04/09 07:20:36;;;;;;;4.25;1.50;;;;;;;19.10;48.01;99446.00;5088205;28;20351;-91
2022/04/09 07:23:02;;;;;;;4.35;1.33;;;;;;;19.10;48.42;99440.69;5083279;28;20040;-89
2022/04/09 07:25:29;;;;;;;4.57;1.23;;;;;;;19.09;48.70;99439.88;5090988;28;20025;-92
2022/04/09 07:27:55;;;;;;;5.30;1.38;;;;;;;19.11;48.50;99447.69;5072251;28;20059;-92
2022/04/09 07:30:22;;;;;;;3.38;1.17;;;;;;;19.09;48.42;99444.28;5088540;28;20036;-91
2022/04/09 07:32:48;;;;;;;5.20;1.27;;;;;;;19.11;48.62;99447.69;5086357;28;20036;-91
2022/04/09 07:35:17;;;;;;;6.18;1.40;;;;;;;19.11;48.22;99443.28;5087351;28;20096;-91
2022/04/09 07:37:50;;;;;;;4.90;1.65;;;;;;;19.11;48.54;99442.41;5089416;28;20092;-91
2022/04/09 07:40:19;;;;;;;4.93;1.35;;;;;;;19.10;48.37;99451.28;5087198;28;20050;-91
2022/04/09 07:42:45;;;;;;;4.97;1.40;;;;;;;19.10;48.39;99446.84;5088401;28;20028;-90
2022/04/09 07:45:13;;;;;;;4.38;1.40;;;;;;;19.11;48.57;99452.97;5087015;28;20017;-91
2022/04/09 07:47:39;;;;;;;6.18;1.40;;;;;;;19.10;48.50;99448.63;5088310;28;20028;-91
2022/04/09 07:50:07;;;;;;;5.25;1.50;;;;;;;19.08;48.62;99455.81;5084629;28;20462;-91
2022/04/09 07:52:33;;;;;;;5.40;1.40;;;;;;;19.07;48.17;99456.75;5083156;28;20415;-90
2022/04/09 07:54:59;;;;;;;5.88;1.73;;;;;;;19.09;48.36;99457.50;5081008;28;20032;-90
2022/04/09 07:57:26;;;;;;;6.40;1.85;;;;;;;19.08;48.03;99463.75;5079749;28;20580;-91
2022/04/09 07:59:57;;;;;;;5.78;1.58;;;;;;;19.07;48.24;99452.28;5080428;28;20032;-92
2022/04/09 08:02:25;;;;;;;6.07;1.63;;;;;;;19.08;48.30;99461.09;5080807;28;20099;-90
2022/04/09 08:04:51;;;;;;;5.97;1.85;;;;;;;19.08;48.34;99461.09;5085412;28;20024;-90
2022/04/09 08:07:17;;;;;;;5.07;1.70;;;;;;;19.10;48.46;99464.50;5083101;28;20430;-90
2022/04/09 08:09:46;;;;;;;4.90;1.35;;;;;;;19.09;48.23;99465.44;5081647;28;20024;-90
2022/04/09 08:12:12;;;;;;;6.05;1.60;;;;;;;19.10;48.15;99467.16;5082119;28;20025;-90
2022/04/09 08:14:39;;;;;;;5.65;1.75;;;;;;;19.08;48.08;99466.38;5081451;28;20108;-91
2022/04/09 08:17:05;;;;;;;7.22;1.55;;;;;;;19.09;48.31;99470.72;5083015;28;20028;-91
2022/04/09 08:19:30;;;;;;;6.45;1.77;;;;;;;19.07;48.37;99469.97;5081235;28;20061;-90
2022/04/09 08:21:57;;;;;;;8.65;1.98;;;;;;;19.09;48.29;99476.88;5082930;28;20094;-91
2022/04/09 08:24:23;;;;;;;5.57;1.65;;;;;;;19.07;48.17;99473.44;5083506;28;20481;-90
2022/04/09 08:26:49;;;;;;;7.43;1.60;;;;;;;19.05;48.24;99470.88;5083557;28;20058;-91
2022/04/09 08:29:20;;;;;;;4.43;1.45;;;;;;;19.06;47.89;99482.31;5081923;28;20025;-91
2022/04/09 08:31:47;;;;;;;4.60;1.33;;;;;;;19.07;48.24;99488.47;5081309;28;20028;-90
2022/04/09 08:34:17;;;;;;;4.72;1.40;;;;;;;19.08;48.38;99484.91;5082241;28;20025;-91
2022/04/09 08:36:44;;;;;;;4.97;1.70;;;;;;;19.08;48.41;99487.53;5081321;28;20204;-91
2022/04/09 08:39:10;;;;;;;5.13;1.63;;;;;;;19.09;47.99;99491.91;5083655;28;20042;-92
2022/04/09 08:41:37;;;;;;;5.32;1.20;;;;;;;19.07;48.20;99497.25;5081500;28;20058;-91
2022/04/09 08:44:03;;;;;;;4.93;1.65;;;;;;;19.07;47.95;99491.13;5080878;28;20024;-90
2022/04/09 08:46:30;;;;;;;4.65;1.52;;;;;;;19.07;48.11;99488.47;5081525;28;20339;-92
2022/04/09 08:48:58;;;;;;;5.35;1.50;;;;;;;19.07;48.04;99496.41;5081857;28;20028;-91
2022/04/09 08:51:25;;;;;;;3.70;1.20;;;;;;;19.08;48.02;99498.13;5081611;28;20564;-90
2022/04/09 08:53:52;;;;;;;6.47;1.75;;;;;;;19.09;48.16;99499.81;5080322;28;20024;-90
2022/04/09 08:56:18;;;;;;;3.60;1.63;;;;;;;19.10;47.89;99510.34;5081332;28;20094;-91
2022/04/09 08:58:44;;;;;;;4.72;1.35;;;;;;;19.10;48.17;99504.19;5080720;28;20093;-90
2022/04/09 09:01:10;;;;;;;3.83;1.48;;;;;;;19.10;47.87;99509.47;5080200;28;20340;-91
2022/04/09 09:03:36;;;;;;;4.65;1.60;;;;;;;19.09;47.95;99508.63;5079691;28;20135;-90
2022/04/09 09:06:27;;;;;;;4.32;1.50;;;;;;;19.09;47.88;99513.06;5079547;28;20448;-90
2022/04/09 09:08:54;;;;;;;5.05;1.98;;;;;;;19.12;47.97;99515.56;5079495;28;20029;-91
2022/04/09 09:11:20;;;;;;;4.13;1.35;;;;;;;19.10;47.68;99520.03;5079317;28;20032;-92
2022/04/09 09:13:53;;;;;;;4.97;1.42;;;;;;;19.10;47.94;99520.03;5079784;28;20070;-91
2022/04/09 09:16:27;;;;;;;4.22;1.20;;;;;;;19.09;47.82;99518.34;5079357;28;20036;-90
2022/04/09 09:18:55;;;;;;;4.07;1.23;;;;;;;19.08;47.97;99525.41;5079976;28;20053;-90
2022/04/09 09:21:26;;;;;;;4.88;1.30;;;;;;;19.08;47.97;99527.22;5079998;28;20035;-90
2022/04/09 09:23:52;;;;;;;4.75;1.48;;;;;;;19.08;47.77;99529.84;5080595;28;20028;-91
2022/04/09 09:26:24;;;;;;;5.50;1.55;;;;;;;19.09;47.83;99528.91;5080841;28;20371;-90
2022/04/09 09:28:57;;;;;;;4.65;1.30;;;;;;;19.08;47.99;99533.34;5080798;28;20032;-91
2022/04/09 09:31:44;;;;;;;3.60;1.30;;;;;;;19.09;47.72;99528.91;5079552;28;20028;-90
2022/04/09 09:34:15;;;;;;;2.72;1.10;;;;;;;19.09;47.90;99528.91;5079311;28;20103;-90
2022/04/09 09:36:43;;;;;;;3.90;1.25;;;;;;;19.09;48.13;99535.06;5081443;28;20033;-91
2022/04/09 09:39:13;;;;;;;5.00;1.48;;;;;;;19.10;48.05;99535.91;5080286;28;20033;-91
2022/04/09 09:41:56;;;;;;;3.22;1.00;;;;;;;19.12;47.84;99539.34;5079893;28;20033;-91
2022/04/09 09:44:24;;;;;;;4.10;1.60;;;;;;;19.11;47.86;99537.63;5081307;28;20457;-91
2022/04/09 09:46:52;;;;;;;4.00;1.40;;;;;;;19.12;47.53;99548.13;5081481;28;20096;-91
2022/04/09 09:49:24;;;;;;;4.90;1.45;;;;;;;19.13;47.94;99541.06;5079660;28;20024;-90
2022/04/09 09:52:05;;;;;;;3.25;1.00;;;;;;;19.15;47.82;99547.13;5079564;28;20372;-92
2022/04/09 09:54:31;;;;;;;2.88;1.30;;;;;;;19.15;47.92;99549.75;5081226;28;20122;-90
2022/04/09 09:56:57;;;;;;;5.13;1.20;;;;;;;19.14;48.23;99540.94;5080779;28;20446;-91
2022/04/09 09:59:24;;;;;;;3.28;0.95;;;;;;;19.16;48.01;99544.41;5081477;28;20096;-92
2022/04/09 10:01:54;;;;;;;4.20;1.30;;;;;;;19.16;47.99;99535.59;5082160;28;20028;-92
2022/04/09 10:04:20;;;;;;;2.55;1.05;;;;;;;19.16;47.76;99538.25;5080035;28;20027;-91
2022/04/09 10:06:46;;;;;;;3.00;1.15;;;;;;;19.18;47.84;99545.16;5081843;28;20021;-90
2022/04/09 10:09:18;;;;;;;3.58;1.05;;;;;;;19.19;47.92;99536.28;5081563;28;20021;-91
2022/04/09 10:11:50;;;;;;;2.70;1.10;;;;;;;19.21;47.67;99543.31;5083761;28;20028;-91
2022/04/09 10:14:21;;;;;;;2.20;1.10;;;;;;;19.22;48.06;99535.28;5082825;28;20025;-91
2022/04/09 10:16:51;;;;;;;4.43;1.20;;;;;;;19.22;47.81;99535.28;5083781;28;20039;-90
2022/04/09 10:19:18;;;;;;;4.85;1.50;;;;;;;19.23;48.03;99529.03;5081848;28;20048;-91
2022/04/09 10:21:47;;;;;;;3.20;1.10;;;;;;;19.26;47.99;99522.72;5081140;28;20024;-91
2022/04/09 10:24:16;;;;;;;2.97;1.00;;;;;;;19.27;47.90;99538.53;5081690;28;20056;-91
2022/04/09 10:26:42;;;;;;;3.53;1.15;;;;;;;19.28;48.03;99537.59;5079693;28;20039;-90
2022/04/09 10:29:09;;;;;;;4.88;1.13;;;;;;;19.29;47.88;99525.22;5079846;28;20059;-90
2022/04/09 10:31:39;;;;;;;5.05;1.33;;;;;;;19.31;47.67;99534.78;5079942;28;20032;-90
2022/04/09 10:34:10;;;;;;;3.50;1.33;;;;;;;19.33;47.77;99532.09;5077950;28;20021;-90
2022/04/09 10:36:45;;;;;;;2.78;1.08;;;;;;;19.34;47.74;99532.91;5079497;28;20050;-90
2022/04/09 10:39:40;;;;;;;3.80;1.05;;;;;;;19.36;47.84;99529.25;5079086;28;20040;-89
2022/04/09 10:42:07;;;;;;;2.70;0.93;;;;;;;19.37;47.59;99532.78;5078480;28;20042;-91
2022/04/09 10:44:53;;;;;;;3.38;0.95;;;;;;;19.37;47.58;99528.31;5078367;28;20037;-90
2022/04/09 10:47:19;;;;;;;4.07;1.13;;;;;;;19.38;47.53;99539.75;5077421;28;20020;-90
2022/04/09 10:50:06;;;;;;;1.85;0.75;;;;;;;19.38;47.48;99540.63;5080446;28;20093;-91
2022/04/09 10:52:33;;;;;;;3.08;0.88;;;;;;;19.39;47.51;99536.19;5075927;28;20412;-91
2022/04/09 10:55:20;;;;;;;2.83;1.00;;;;;;;19.39;47.40;99544.13;5078957;28;20043;-89
2022/04/09 10:57:47;;;;;;;3.28;0.80;;;;;;;19.38;47.42;99555.63;5079091;28;20034;-90
2022/04/09 11:00:29;;;;;;;3.10;0.82;;;;;;;19.39;47.55;99575.88;5079904;28;20082;-90
2022/04/09 11:03:05;;;;;;;2.75;0.90;;;;;;;19.41;47.28;99587.22;5079528;28;20032;-90
2022/04/09 11:05:30;;;;;;;5.07;1.30;;;;;;;19.40;47.57;99577.56;5078786;28;20059;-90
2022/04/09 11:08:19;;;;;;;3.13;0.90;;;;;;;19.44;47.16;99592.38;5081089;28;20055;-90
2022/04/09 11:10:46;;;;;;;2.80;1.00;;;;;;;19.43;47.13;99580.06;5083286;28;20020;-90
2022/04/09 11:13:12;;;;;;;2.75;1.20;;;;;;;19.45;47.06;99562.31;5083318;28;20128;-89
2022/04/09 11:15:40;;;;;;;3.58;1.17;;;;;;;19.44;47.28;99576.47;5082692;28;20024;-90
2022/04/09 11:18:06;;;;;;;3.40;1.42;;;;;;;19.45;47.22;99578.19;5082152;28;20119;-91
2022/04/09 11:20:34;;;;;;;3.42;1.10;;;;;;;19.44;46.56;99571.19;5085143;28;20032;-91
2022/04/09 11:23:16;;;;;;;3.85;1.17;;;;;;;19.45;46.83;99563.19;5084604;28;20039;-92
2022/04/09 11:25:44;;;;;;;4.00;1.70;;;;;;;19.47;46.89;99568.41;5086254;28;20024;-89
2022/04/09 11:28:19;;;;;;;4.18;1.67;;;;;;;19.47;47.09;99556.94;5084910;28;20039;-91
2022/04/09 11:31:00;;;;;;;4.47;1.67;;;;;;;19.49;46.94;99558.56;5085019;28;20032;-90
2022/04/09 11:33:27;;;;;;;3.50;1.30;;;;;;;19.48;46.96;99559.53;5084489;28;20027;-90
2022/04/09 11:35:53;;;;;;;3.72;1.20;;;;;;;19.51;47.03;99555.84;5083261;28;20036;-90